LFLB

Chambéry

Airport
ICAO code
LFLB
Summary
ICAO Region
EUR
ICAO Territory
Location

Voglans, La Motte-Servolex, Le Bourget-du-Lac, Viviers-du-Lac,

Coordinates
45° 38' 19" N , 5° 52' 52" E
Metar
LFLB 160800Z AUTO 01011KT 9999 BKN052 BKN082 10/04 Q1017 BECMG FEW040TCU SCT050

Description

Chambéry Airport or Chambéry-Savoie Airport, also known as Chambéry Aix-les-Bains Airport, is a small international airport near Chambéry, a commune in Savoie, France.

Climatology

Runways

Designator Length Width Surface Rops
18/36 2020 45 ASP Yes/Yes

Airport map

Aerial View

SKYbrary Partners:

Safety knowledge contributed by: